createdAt,value
2022-11-23T00:01:37.652Z,67.00
2022-11-23T00:04:08.450Z,67.00
2022-11-23T00:06:35.342Z,68.10
2022-11-23T00:09:01.958Z,67.70
2022-11-23T00:11:29.216Z,67.00
2022-11-23T00:13:55.864Z,67.10
2022-11-23T00:16:23.589Z,67.70
2022-11-23T00:18:52.559Z,67.00
2022-11-23T00:21:20.268Z,66.90
2022-11-23T00:23:46.848Z,66.90
2022-11-23T00:26:13.870Z,66.90
2022-11-23T00:28:40.767Z,66.90
2022-11-23T00:31:08.131Z,66.80
2022-11-23T00:33:34.907Z,66.70
2022-11-23T00:36:04.394Z,66.60
2022-11-23T00:38:30.976Z,66.60
2022-11-23T00:41:01.224Z,66.50
2022-11-23T00:43:28.223Z,66.60
2022-11-23T00:46:03.582Z,66.40
2022-11-23T00:48:30.188Z,66.50
2022-11-23T00:50:56.741Z,66.40
2022-11-23T00:53:23.308Z,66.30
2022-11-23T00:55:53.780Z,66.30
2022-11-23T00:58:20.373Z,66.20
2022-11-23T01:00:47.998Z,66.10
2022-11-23T01:03:15.056Z,66.10
2022-11-23T01:05:41.657Z,66.10
2022-11-23T01:08:08.257Z,66.00
2022-11-23T01:10:34.822Z,67.80
2022-11-23T01:13:01.350Z,69.80
2022-11-23T01:15:27.883Z,70.80
2022-11-23T01:17:54.374Z,71.10
2022-11-23T01:20:20.937Z,71.60
2022-11-23T01:22:47.477Z,71.10
2022-11-23T01:25:14.133Z,70.20
2022-11-23T01:27:40.743Z,69.60
2022-11-23T01:30:07.598Z,69.30
2022-11-23T01:32:34.120Z,69.90
2022-11-23T01:35:00.705Z,69.70
2022-11-23T01:37:27.215Z,69.90
2022-11-23T01:39:53.701Z,69.80
2022-11-23T01:42:20.210Z,69.70
2022-11-23T01:44:48.235Z,70.30
2022-11-23T01:47:14.791Z,71.10
2022-11-23T01:49:43.514Z,71.40
2022-11-23T01:52:11.744Z,71.40
2022-11-23T01:54:39.910Z,73.80
2022-11-23T01:57:10.816Z,73.80
2022-11-23T01:59:37.487Z,73.50
2022-11-23T02:02:04.567Z,73.70
2022-11-23T02:04:33.488Z,73.60
2022-11-23T02:07:00.962Z,73.50
2022-11-23T02:09:29.352Z,73.60
2022-11-23T02:11:56.061Z,74.10
2022-11-23T02:14:23.665Z,78.20
2022-11-23T02:16:50.439Z,81.70
2022-11-23T02:19:39.764Z,83.90
2022-11-23T02:22:10.111Z,84.70
2022-11-23T02:24:39.830Z,83.50
2022-11-23T02:27:07.792Z,82.70
2022-11-23T02:29:34.728Z,81.90
2022-11-23T02:32:01.339Z,82.30
2022-11-23T02:34:28.016Z,83.20
2022-11-23T02:36:55.521Z,83.60
2022-11-23T02:39:24.895Z,84.00
2022-11-23T02:41:52.543Z,84.80
2022-11-23T02:44:19.185Z,84.80
2022-11-23T02:46:45.994Z,85.10
2022-11-23T02:49:12.550Z,85.60
2022-11-23T02:51:39.116Z,85.90
2022-11-23T02:54:05.959Z,85.90
2022-11-23T02:56:32.569Z,85.10
2022-11-23T02:58:59.118Z,85.00
2022-11-23T03:01:25.694Z,84.80
2022-11-23T03:03:52.202Z,84.30
2022-11-23T03:06:18.703Z,84.60
2022-11-23T03:08:45.216Z,85.80
2022-11-23T03:11:11.774Z,86.00
2022-11-23T03:13:38.681Z,85.90
2022-11-23T03:16:05.363Z,85.90
2022-11-23T03:18:31.864Z,86.00
2022-11-23T03:21:02.678Z,87.30
2022-11-23T03:23:29.412Z,87.40
2022-11-23T03:25:56.599Z,87.60
2022-11-23T03:28:23.236Z,87.00
2022-11-23T03:33:18.373Z,85.30
2022-11-23T03:35:45.206Z,85.20
2022-11-23T03:38:12.149Z,85.80
2022-11-23T03:40:39.204Z,86.00
2022-11-23T03:43:06.227Z,86.50
2022-11-23T03:45:32.960Z,86.10
2022-11-23T03:47:59.490Z,85.40
2022-11-23T03:50:26.055Z,82.60
2022-11-23T03:52:52.605Z,81.90
2022-11-23T03:55:19.158Z,82.00
2022-11-23T03:57:47.344Z,83.20
2022-11-23T04:00:15.081Z,85.10
2022-11-23T04:02:42.381Z,85.80
2022-11-23T04:05:09.614Z,86.80
2022-11-23T04:07:36.251Z,87.30
2022-11-23T04:10:03.377Z,87.20
2022-11-23T04:12:29.938Z,85.80
2022-11-23T04:14:56.459Z,84.80
2022-11-23T04:17:23.060Z,84.20
2022-11-23T04:19:50.012Z,82.40
2022-11-23T04:22:16.564Z,81.80
2022-11-23T04:24:43.126Z,78.80
2022-11-23T04:27:09.693Z,78.40
2022-11-23T04:29:36.292Z,77.60
2022-11-23T04:32:02.812Z,77.50
2022-11-23T04:34:31.076Z,77.50
2022-11-23T04:36:57.576Z,78.00
2022-11-23T04:39:24.135Z,79.30
2022-11-23T04:41:50.679Z,81.20
2022-11-23T04:44:17.382Z,81.60
2022-11-23T04:46:43.938Z,83.10
2022-11-23T04:49:10.472Z,84.30
2022-11-23T04:51:37.080Z,86.00
2022-11-23T04:54:03.686Z,88.90
2022-11-23T04:56:30.218Z,89.60
2022-11-23T04:58:56.731Z,89.60
2022-11-23T05:01:23.345Z,89.60
2022-11-23T05:03:50.090Z,89.60
2022-11-23T05:06:16.639Z,89.60
2022-11-23T05:08:43.186Z,89.70
2022-11-23T05:11:09.803Z,89.80
2022-11-23T05:13:36.371Z,89.70
2022-11-23T05:16:02.995Z,89.80
2022-11-23T05:18:29.510Z,89.80
2022-11-23T05:20:56.101Z,89.80
2022-11-23T05:23:22.641Z,89.80
2022-11-23T05:25:49.345Z,89.80
2022-11-23T05:28:38.599Z,89.90
2022-11-23T05:31:03.716Z,89.80
2022-11-23T05:33:30.334Z,89.90
2022-11-23T05:35:56.829Z,88.30
2022-11-23T05:38:23.418Z,88.20
2022-11-23T05:40:50.011Z,88.70
2022-11-23T05:43:16.516Z,88.10
2022-11-23T05:45:43.032Z,88.40
2022-11-23T05:48:09.613Z,88.60
2022-11-23T05:50:36.209Z,88.20
2022-11-23T05:53:02.764Z,89.10
2022-11-23T05:55:29.268Z,89.00
2022-11-23T05:57:55.831Z,89.10
2022-11-23T06:00:22.436Z,88.90
2022-11-23T06:02:48.990Z,89.30
2022-11-23T06:05:15.588Z,88.60
2022-11-23T06:07:42.212Z,89.40
2022-11-23T06:10:08.931Z,88.00
2022-11-23T06:12:35.568Z,87.70
2022-11-23T06:15:02.060Z,87.70
2022-11-23T06:17:28.594Z,87.20
2022-11-23T06:19:55.113Z,86.50
2022-11-23T06:22:21.713Z,86.40
2022-11-23T06:24:48.233Z,86.90
2022-11-23T06:27:18.265Z,86.20
2022-11-23T06:29:46.834Z,86.20
2022-11-23T06:32:13.494Z,86.00
2022-11-23T06:34:40.012Z,86.00
2022-11-23T06:37:06.552Z,85.40
2022-11-23T06:39:33.583Z,85.20
2022-11-23T06:42:16.763Z,85.30
2022-11-23T06:44:46.987Z,86.20
2022-11-23T06:47:17.196Z,86.60
2022-11-23T06:49:44.921Z,86.30
2022-11-23T06:52:13.205Z,86.30
2022-11-23T06:54:39.856Z,85.50
2022-11-23T06:57:09.559Z,84.40
2022-11-23T06:59:39.456Z,83.90
2022-11-23T07:02:09.227Z,83.40
2022-11-23T07:04:35.765Z,84.10
2022-11-23T07:07:02.815Z,83.30
2022-11-23T07:09:29.811Z,82.40
2022-11-23T07:11:56.647Z,82.40
2022-11-23T07:14:23.184Z,82.40
2022-11-23T07:16:50.117Z,82.40
2022-11-23T07:19:16.694Z,82.50
2022-11-23T07:21:44.534Z,82.40
2022-11-23T07:24:11.095Z,82.50
2022-11-23T07:26:37.627Z,82.50
2022-11-23T07:29:04.161Z,81.30
2022-11-23T07:31:31.084Z,80.80
2022-11-23T07:33:57.641Z,81.40
2022-11-23T07:36:24.246Z,81.00
2022-11-23T07:38:50.746Z,80.40
2022-11-23T07:41:17.332Z,79.40
2022-11-23T07:43:43.902Z,79.20
2022-11-23T07:46:10.471Z,78.30
2022-11-23T07:48:37.017Z,77.40
2022-11-23T07:51:03.645Z,77.20
2022-11-23T07:53:30.147Z,77.80
2022-11-23T07:55:58.532Z,77.10
2022-11-23T07:58:25.435Z,76.50
2022-11-23T08:00:52.047Z,75.90
2022-11-23T08:03:27.624Z,76.10
2022-11-23T08:05:55.319Z,77.10
2022-11-23T08:08:21.855Z,76.40
2022-11-23T08:10:52.900Z,75.80
2022-11-23T08:13:20.291Z,75.00
2022-11-23T08:15:53.423Z,75.40
2022-11-23T08:18:21.241Z,74.70
2022-11-23T08:20:47.924Z,74.80
2022-11-23T08:23:14.440Z,74.80
2022-11-23T08:25:41.171Z,74.90
2022-11-23T08:28:07.717Z,73.20
2022-11-23T08:30:34.506Z,72.90
2022-11-23T08:33:02.648Z,72.20
2022-11-23T08:35:29.269Z,72.00
2022-11-23T08:37:56.030Z,69.40
2022-11-23T08:40:25.529Z,68.60
2022-11-23T08:42:52.601Z,68.30
2022-11-23T08:45:19.196Z,66.70
2022-11-23T08:47:45.775Z,66.70
2022-11-23T08:50:12.515Z,66.80
2022-11-23T08:52:39.045Z,66.70
2022-11-23T08:55:05.927Z,66.80
2022-11-23T08:57:32.458Z,66.80
2022-11-23T08:59:58.982Z,66.00
2022-11-23T09:02:25.556Z,64.60
2022-11-23T09:04:52.116Z,63.80
2022-11-23T09:07:18.815Z,62.90
2022-11-23T09:09:45.494Z,63.00
2022-11-23T09:12:12.145Z,62.70
2022-11-23T09:14:38.660Z,62.90
2022-11-23T09:17:05.253Z,63.50
2022-11-23T09:19:32.032Z,61.50
2022-11-23T09:21:58.850Z,60.50
2022-11-23T09:24:27.825Z,58.80
2022-11-23T09:26:55.037Z,58.40
2022-11-23T09:29:21.650Z,58.60
2022-11-23T09:31:48.256Z,55.50
2022-11-23T09:34:14.969Z,51.40
2022-11-23T09:36:41.576Z,50.60
2022-11-23T09:39:08.489Z,51.50
2022-11-23T09:41:50.141Z,49.90
2022-11-23T09:44:19.713Z,48.80
2022-11-23T09:47:03.950Z,47.60
2022-11-23T09:49:37.795Z,44.50
2022-11-23T09:52:09.080Z,42.50
2022-11-23T09:54:37.353Z,39.30
2022-11-23T09:57:04.519Z,38.80
2022-11-23T09:59:31.026Z,34.10
2022-11-23T10:01:58.642Z,33.50
2022-11-23T10:04:25.515Z,30.80
2022-11-23T10:06:54.607Z,28.60
2022-11-23T10:09:24.707Z,27.30
2022-11-23T10:11:57.568Z,26.90
2022-11-23T10:14:47.152Z,23.80
2022-11-23T10:17:36.764Z,19.90
2022-11-23T10:20:23.657Z,17.10
2022-11-23T10:22:53.216Z,19.50
2022-11-23T10:25:20.624Z,18.70
2022-11-23T10:27:48.768Z,15.90
2022-11-23T10:30:16.321Z,14.80
2022-11-23T10:32:51.846Z,9.60
2022-11-23T10:35:23.080Z,6.80
2022-11-23T10:37:53.328Z,5.30
2022-11-23T10:40:23.732Z,1.70
2022-11-23T10:42:53.426Z,2.20
2022-11-23T10:45:22.110Z,1.00
2022-11-23T10:47:51.661Z,1.00
2022-11-23T10:50:27.508Z,1.00
2022-11-23T10:52:55.823Z,1.00
2022-11-23T10:55:24.645Z,1.00
2022-11-23T10:57:51.244Z,1.00
2022-11-23T11:00:19.502Z,1.00
2022-11-23T11:02:56.560Z,1.00
2022-11-23T11:06:01.163Z,1.00
2022-11-23T11:08:16.836Z,1.00
2022-11-23T11:10:45.706Z,1.00
2022-11-23T11:13:21.770Z,1.00
2022-11-23T11:15:54.728Z,1.00
2022-11-23T11:18:21.603Z,1.00
2022-11-23T11:20:55.043Z,1.00
2022-11-23T11:23:22.907Z,1.00
2022-11-23T11:25:50.678Z,1.00
2022-11-23T11:28:20.299Z,1.00
2022-11-23T11:30:53.935Z,1.00
2022-11-23T11:33:25.525Z,1.00
2022-11-23T11:35:53.625Z,1.00
2022-11-23T11:38:27.466Z,1.00
2022-11-23T11:40:54.518Z,1.00
2022-11-23T11:43:39.601Z,1.00
2022-11-23T11:46:35.180Z,1.00
2022-11-23T11:49:20.759Z,1.00
2022-11-23T11:51:49.612Z,1.00
2022-11-23T11:54:22.100Z,1.00
2022-11-23T11:56:54.025Z,1.00
2022-11-23T11:59:29.357Z,1.00
2022-11-23T12:01:55.929Z,1.00
2022-11-23T12:04:27.982Z,1.00
2022-11-23T12:06:58.482Z,1.00
2022-11-23T12:09:31.006Z,1.00
2022-11-23T12:11:58.058Z,1.00
2022-11-23T12:14:24.888Z,1.00
2022-11-23T12:17:30.866Z,1.00
2022-11-23T12:20:07.076Z,1.00
2022-11-23T12:22:42.653Z,1.00
2022-11-23T12:25:14.258Z,1.00
2022-11-23T12:27:48.614Z,1.00
2022-11-23T12:30:29.844Z,1.00
2022-11-23T12:32:59.483Z,1.00
2022-11-23T12:35:46.312Z,1.00
2022-11-23T12:38:23.958Z,1.00
2022-11-23T12:40:53.463Z,1.00
2022-11-23T12:43:33.536Z,1.00
2022-11-23T12:46:21.248Z,1.00
2022-11-23T12:48:47.779Z,1.00
2022-11-23T12:51:17.360Z,1.00
2022-11-23T12:53:51.395Z,1.00
2022-11-23T12:56:23.934Z,1.00
2022-11-23T12:58:52.760Z,1.00
2022-11-23T13:01:25.212Z,1.00
2022-11-23T13:04:14.991Z,1.00
2022-11-23T13:07:26.773Z,1.00
2022-11-23T13:09:49.906Z,1.00
2022-11-23T13:12:19.584Z,1.00
2022-11-23T13:14:53.891Z,1.00
2022-11-23T13:17:24.583Z,1.00
2022-11-23T13:20:04.047Z,1.00
2022-11-23T13:22:31.449Z,1.00
2022-11-23T13:25:01.545Z,1.00
2022-11-23T13:27:31.609Z,1.00
2022-11-23T13:30:01.041Z,1.00
2022-11-23T13:32:39.575Z,1.00
2022-11-23T13:35:21.599Z,1.00
2022-11-23T13:37:57.014Z,1.00
2022-11-23T13:40:28.425Z,1.00
2022-11-23T13:43:15.294Z,1.00
2022-11-23T13:45:41.947Z,1.00
2022-11-23T13:48:08.481Z,1.00
2022-11-23T13:50:36.172Z,1.00
2022-11-23T13:53:03.694Z,1.00
2022-11-23T13:55:33.372Z,1.00
2022-11-23T13:58:18.951Z,1.00
2022-11-23T14:01:05.922Z,1.00
2022-11-23T14:03:51.573Z,1.00
2022-11-23T14:06:21.773Z,1.00
2022-11-23T14:08:49.959Z,1.00
2022-11-23T14:11:19.464Z,1.00
2022-11-23T14:13:53.959Z,1.00
2022-11-23T14:16:31.893Z,1.00
2022-11-23T14:19:05.172Z,1.00
2022-11-23T14:21:50.540Z,1.00
2022-11-23T14:24:38.280Z,1.00
2022-11-23T14:27:45.610Z,1.00
2022-11-23T14:30:02.622Z,1.00
2022-11-23T14:32:49.240Z,1.00
2022-11-23T14:35:20.834Z,1.00
2022-11-23T14:37:47.444Z,1.00
2022-11-23T14:40:29.336Z,1.00
2022-11-23T14:42:57.196Z,1.00
2022-11-23T14:45:27.334Z,1.00
2022-11-23T14:47:53.947Z,1.00
2022-11-23T14:50:21.325Z,1.30
2022-11-23T14:52:48.166Z,1.20
2022-11-23T14:55:17.498Z,2.50
2022-11-23T14:57:45.362Z,3.80
2022-11-23T15:00:29.110Z,5.80
2022-11-23T15:02:58.141Z,6.40
2022-11-23T15:05:28.246Z,8.60
2022-11-23T15:08:17.926Z,9.10
2022-11-23T15:11:05.996Z,10.90
2022-11-23T15:13:41.932Z,10.40
2022-11-23T15:16:11.154Z,11.90
2022-11-23T15:18:37.864Z,14.50
2022-11-23T15:21:10.382Z,14.90
2022-11-23T15:23:41.416Z,16.40
2022-11-23T15:26:34.764Z,17.20
2022-11-23T15:29:01.800Z,19.30
2022-11-23T15:31:30.407Z,19.20
2022-11-23T15:33:58.495Z,22.30
2022-11-23T15:36:32.679Z,23.70
2022-11-23T15:39:01.183Z,24.40
2022-11-23T15:41:29.572Z,26.60
2022-11-23T15:43:57.383Z,28.50
2022-11-23T15:46:28.088Z,28.60
2022-11-23T15:48:55.262Z,28.60
2022-11-23T15:51:24.639Z,30.40
2022-11-23T15:53:52.033Z,33.50
2022-11-23T15:56:21.594Z,35.50
2022-11-23T15:58:48.312Z,36.30
2022-11-23T16:01:15.297Z,38.50
2022-11-23T16:03:52.496Z,38.70
2022-11-23T16:06:22.740Z,38.80
2022-11-23T16:08:49.348Z,40.80
2022-11-23T16:11:19.042Z,42.10
2022-11-23T16:13:48.579Z,43.00
2022-11-23T16:16:17.355Z,44.20
2022-11-23T16:18:45.229Z,45.90
2022-11-23T16:21:16.104Z,47.20
2022-11-23T16:23:45.729Z,47.50
2022-11-23T16:26:13.197Z,48.10
2022-11-23T16:28:47.661Z,48.90
2022-11-23T16:31:33.276Z,48.80
2022-11-23T16:33:59.854Z,48.80
2022-11-23T16:36:27.080Z,50.60
2022-11-23T16:38:53.830Z,51.50
2022-11-23T16:41:20.408Z,51.40
2022-11-23T16:43:51.787Z,52.00
2022-11-23T16:46:18.410Z,52.90
2022-11-23T16:48:45.189Z,53.20
2022-11-23T16:51:14.357Z,55.10
2022-11-23T16:54:11.465Z,55.40
2022-11-23T16:56:28.388Z,57.00
2022-11-23T16:58:55.279Z,58.70
2022-11-23T17:01:23.383Z,58.10
2022-11-23T17:03:49.948Z,58.60
2022-11-23T17:06:17.502Z,59.30
2022-11-23T17:08:44.895Z,58.60
2022-11-23T17:11:15.668Z,58.60
2022-11-23T17:13:42.690Z,59.40
2022-11-23T17:16:12.842Z,60.40
2022-11-23T17:18:39.446Z,61.60
2022-11-23T17:21:06.680Z,62.90
2022-11-23T17:23:33.551Z,62.80
2022-11-23T17:26:00.284Z,64.00
2022-11-23T17:28:28.672Z,63.80
2022-11-23T17:30:55.316Z,65.30
2022-11-23T17:33:21.926Z,66.70
2022-11-23T17:35:48.732Z,67.10
2022-11-23T17:38:16.580Z,67.10
2022-11-23T17:40:43.120Z,67.00
2022-11-23T17:43:15.820Z,67.00
2022-11-23T17:45:43.646Z,67.00
2022-11-23T17:48:14.782Z,67.00
2022-11-23T17:50:41.358Z,67.00
2022-11-23T17:53:09.236Z,67.00
2022-11-23T17:55:35.875Z,65.50
2022-11-23T17:58:02.489Z,63.20
2022-11-23T18:00:29.701Z,64.20
2022-11-23T18:02:56.259Z,63.90
2022-11-23T18:05:22.934Z,65.10
2022-11-23T18:07:50.521Z,67.70
2022-11-23T18:10:17.553Z,67.20
2022-11-23T18:12:44.676Z,66.00
2022-11-23T18:15:11.838Z,66.60
2022-11-23T18:17:38.562Z,66.60
2022-11-23T18:20:08.052Z,66.50
2022-11-23T18:22:34.800Z,64.00
2022-11-23T18:25:01.535Z,63.90
2022-11-23T18:27:29.731Z,66.40
2022-11-23T18:29:56.498Z,70.50
2022-11-23T18:32:23.088Z,83.00
2022-11-23T18:34:49.607Z,83.50
2022-11-23T18:37:16.218Z,77.60
2022-11-23T18:39:42.747Z,75.00
2022-11-23T18:42:09.351Z,74.90
2022-11-23T18:44:35.902Z,74.90
2022-11-23T18:47:02.573Z,74.70
2022-11-23T18:49:29.130Z,76.40
2022-11-23T18:51:55.683Z,77.90
2022-11-23T18:54:22.374Z,77.50
2022-11-23T18:56:48.950Z,77.40
2022-11-23T18:59:29.016Z,77.20
2022-11-23T19:02:01.966Z,77.70
2022-11-23T19:04:29.299Z,78.70
2022-11-23T19:06:55.832Z,79.40
2022-11-23T19:09:22.445Z,79.70
2022-11-23T19:11:48.974Z,79.80
2022-11-23T19:14:15.749Z,80.40
2022-11-23T19:16:42.323Z,80.00
2022-11-23T19:19:10.536Z,79.80
2022-11-23T19:21:37.431Z,79.60
2022-11-23T19:24:04.434Z,80.50
2022-11-23T19:26:31.214Z,81.00
2022-11-23T19:28:58.212Z,82.30
2022-11-23T19:31:26.986Z,82.50
2022-11-23T19:33:55.748Z,82.50
2022-11-23T19:36:22.968Z,84.40
2022-11-23T19:38:50.236Z,85.80
2022-11-23T19:41:17.395Z,86.10
2022-11-23T19:43:44.354Z,86.30
2022-11-23T19:46:12.028Z,86.40
2022-11-23T19:48:39.463Z,86.50
2022-11-23T19:51:07.574Z,87.70
2022-11-23T19:53:34.814Z,88.30
2022-11-23T19:56:05.965Z,90.00
2022-11-23T19:58:33.196Z,90.10
2022-11-23T20:01:04.408Z,90.10
2022-11-23T20:03:33.712Z,90.40
2022-11-23T20:06:01.679Z,90.70
2022-11-23T20:08:28.510Z,90.90
2022-11-23T20:10:55.461Z,91.00
2022-11-23T20:13:22.293Z,91.20
2022-11-23T20:15:49.054Z,91.30
2022-11-23T20:18:16.201Z,91.20
2022-11-23T20:20:46.834Z,91.60
2022-11-23T20:23:14.717Z,91.40
2022-11-23T20:25:41.962Z,91.60
2022-11-23T20:28:11.117Z,91.60
2022-11-23T20:30:37.655Z,91.50
2022-11-23T20:33:04.241Z,91.30
2022-11-23T20:35:30.805Z,91.40
2022-11-23T20:37:57.370Z,91.30
2022-11-23T20:40:23.956Z,90.90
2022-11-23T20:42:50.493Z,90.50
2022-11-23T20:45:17.139Z,90.20
2022-11-23T20:47:44.092Z,90.30
2022-11-23T20:50:10.677Z,90.20
2022-11-23T20:52:37.359Z,90.40
2022-11-23T20:55:04.148Z,90.20
2022-11-23T20:57:30.717Z,90.50
2022-11-23T20:59:57.342Z,90.70
2022-11-23T21:02:23.891Z,91.20
2022-11-23T21:04:50.478Z,91.60
2022-11-23T21:07:17.080Z,91.70
2022-11-23T21:09:43.698Z,91.80
2022-11-23T21:12:29.111Z,91.40
2022-11-23T21:14:56.334Z,91.50
2022-11-23T21:17:22.898Z,91.60
2022-11-23T21:19:49.837Z,91.30
2022-11-23T21:22:18.593Z,91.40
2022-11-23T21:24:45.239Z,91.00
2022-11-23T21:27:13.107Z,91.00
2022-11-23T21:29:39.812Z,91.00
2022-11-23T21:32:06.391Z,90.90
2022-11-23T21:34:33.789Z,91.00
2022-11-23T21:37:00.973Z,90.40
2022-11-23T21:39:30.849Z,90.80
2022-11-23T21:41:57.756Z,91.20
2022-11-23T21:44:24.363Z,91.20
2022-11-23T21:46:51.241Z,91.30
2022-11-23T21:49:18.018Z,91.50
2022-11-23T21:51:45.660Z,91.60
2022-11-23T21:54:15.986Z,91.40
2022-11-23T21:56:43.556Z,91.60
2022-11-23T21:59:10.365Z,91.50
2022-11-23T22:01:37.593Z,91.70
2022-11-23T22:04:08.877Z,91.90
2022-11-23T22:06:36.306Z,91.80
2022-11-23T22:09:04.745Z,91.70
2022-11-23T22:11:32.614Z,91.90
2022-11-23T22:14:04.710Z,92.10
2022-11-23T22:16:32.540Z,92.70
2022-11-23T22:18:59.937Z,92.60
2022-11-23T22:21:27.961Z,93.00
2022-11-23T22:23:54.711Z,92.70
2022-11-23T22:26:21.647Z,92.80
2022-11-23T22:28:51.526Z,93.00
2022-11-23T22:31:19.851Z,93.10
2022-11-23T22:33:46.509Z,93.40
2022-11-23T22:36:17.179Z,93.30
2022-11-23T22:38:44.095Z,92.90
2022-11-23T22:41:14.789Z,92.80
2022-11-23T22:43:41.838Z,93.10
2022-11-23T22:46:10.862Z,92.80
2022-11-23T22:48:38.073Z,92.60
2022-11-23T22:51:05.021Z,92.70
2022-11-23T22:53:31.669Z,92.70
2022-11-23T22:56:02.557Z,92.60
2022-11-23T22:58:30.238Z,92.50
2022-11-23T23:00:57.536Z,92.50
2022-11-23T23:03:24.231Z,92.60
2022-11-23T23:05:54.991Z,92.90
2022-11-23T23:08:22.534Z,93.20
2022-11-23T23:10:49.655Z,93.40
2022-11-23T23:13:16.597Z,93.50
2022-11-23T23:15:43.339Z,93.70
2022-11-23T23:18:10.478Z,93.90
2022-11-23T23:20:37.741Z,94.00
2022-11-23T23:23:05.078Z,94.00
2022-11-23T23:25:32.172Z,94.00
2022-11-23T23:27:59.096Z,94.00
2022-11-23T23:30:25.725Z,94.00
2022-11-23T23:32:58.059Z,94.00
2022-11-23T23:35:24.588Z,94.00
2022-11-23T23:37:51.401Z,94.00
2022-11-23T23:40:17.960Z,94.00
2022-11-23T23:42:44.528Z,94.00
2022-11-23T23:45:11.152Z,94.00
2022-11-23T23:47:37.897Z,94.10
2022-11-23T23:50:04.661Z,94.00
2022-11-23T23:52:31.330Z,94.00
2022-11-23T23:54:57.889Z,94.00
2022-11-23T23:57:24.530Z,94.00
2022-11-23T23:59:51.080Z,94.10
